createdAt,value
2023-02-27T00:01:44.416Z,70
2023-02-27T00:06:45.659Z,70
2023-02-27T00:11:47.736Z,70
2023-02-27T00:16:49.593Z,71
2023-02-27T00:21:50.893Z,71
2023-02-27T00:26:52.753Z,71
2023-02-27T00:31:54.264Z,71
2023-02-27T00:36:55.504Z,71
2023-02-27T00:41:56.758Z,71
2023-02-27T00:46:58.898Z,71
2023-02-27T00:52:00.274Z,71
2023-02-27T00:57:01.982Z,71
2023-02-27T01:02:04.172Z,71
2023-02-27T01:07:05.795Z,71
2023-02-27T01:12:07.371Z,71
2023-02-27T01:17:08.638Z,71
2023-02-27T01:22:10.461Z,71
2023-02-27T01:27:12.444Z,71
2023-02-27T01:32:13.961Z,71
2023-02-27T01:37:15.945Z,70
2023-02-27T01:42:17.631Z,71
2023-02-27T01:47:19.484Z,71
2023-02-27T01:52:21.397Z,71
2023-02-27T01:57:23.591Z,71
2023-02-27T02:02:25.073Z,71
2023-02-27T02:07:26.936Z,71
2023-02-27T02:12:28.483Z,71
2023-02-27T02:17:29.890Z,70
2023-02-27T02:22:31.096Z,71
2023-02-27T02:27:32.675Z,71
2023-02-27T02:32:34.053Z,71
2023-02-27T02:37:36.121Z,71
2023-02-27T02:42:37.754Z,71
2023-02-27T02:47:39.351Z,70
2023-02-27T02:52:41.333Z,71
2023-02-27T02:57:42.633Z,70
2023-02-27T03:02:44.992Z,70
2023-02-27T03:07:46.045Z,71
2023-02-27T03:12:47.703Z,71
2023-02-27T03:17:49.223Z,70
2023-02-27T03:22:50.722Z,70
2023-02-27T03:27:52.045Z,71
2023-02-27T03:32:53.641Z,71
2023-02-27T03:37:55.385Z,71
2023-02-27T03:42:56.825Z,71
2023-02-27T03:47:58.960Z,70
2023-02-27T03:53:01.096Z,71
2023-02-27T03:58:02.783Z,71
2023-02-27T04:03:04.983Z,71
2023-02-27T04:08:06.665Z,71
2023-02-27T04:13:08.088Z,71
2023-02-27T04:18:09.588Z,71
2023-02-27T04:23:10.928Z,71
2023-02-27T04:28:13.020Z,70
2023-02-27T04:33:15.190Z,70
2023-02-27T04:38:16.609Z,71
2023-02-27T04:43:18.382Z,71
2023-02-27T04:48:25.336Z,71
2023-02-27T04:53:21.861Z,71
2023-02-27T04:58:25.267Z,71
2023-02-27T05:03:25.254Z,71
2023-02-27T05:08:26.708Z,71
2023-02-27T05:13:28.258Z,71
2023-02-27T05:18:29.591Z,71
2023-02-27T05:23:31.428Z,72
2023-02-27T05:28:32.856Z,71
2023-02-27T05:33:34.674Z,71
2023-02-27T05:38:36.181Z,72
2023-02-27T05:43:37.863Z,72
2023-02-27T05:48:44.123Z,72
2023-02-27T05:53:40.373Z,72
2023-02-27T05:58:42.184Z,72
2023-02-27T06:03:44.184Z,73
2023-02-27T06:08:45.557Z,73
2023-02-27T06:13:47.422Z,72
2023-02-27T06:18:53.801Z,72
2023-02-27T06:23:50.602Z,72
2023-02-27T06:28:52.437Z,72
2023-02-27T06:33:54.384Z,71
2023-02-27T06:38:55.948Z,71
2023-02-27T06:43:57.739Z,71
2023-02-27T06:48:59.292Z,71
2023-02-27T06:54:00.718Z,70
2023-02-27T06:59:02.399Z,70
2023-02-27T07:04:04.193Z,69
2023-02-27T07:09:06.795Z,70
2023-02-27T07:14:07.098Z,69
2023-02-27T07:19:08.950Z,69
2023-02-27T07:24:10.728Z,68
2023-02-27T07:29:12.153Z,69
2023-02-27T07:34:13.548Z,69
2023-02-27T07:39:15.394Z,68
2023-02-27T07:44:17.290Z,67
2023-02-27T07:49:18.655Z,67
2023-02-27T07:54:20.299Z,67
2023-02-27T07:59:21.874Z,67
2023-02-27T08:04:28.918Z,66
2023-02-27T08:09:26.044Z,67
2023-02-27T08:14:28.104Z,66
2023-02-27T08:19:29.734Z,65
2023-02-27T08:24:31.293Z,65
2023-02-27T08:29:32.828Z,64
2023-02-27T08:34:34.892Z,65
2023-02-27T08:39:36.232Z,65
2023-02-27T08:44:37.812Z,65
2023-02-27T08:49:38.953Z,64
2023-02-27T08:54:40.670Z,65
2023-02-27T08:59:42.194Z,63
2023-02-27T09:04:44.273Z,62
2023-02-27T09:09:45.892Z,61
2023-02-27T09:14:47.815Z,62
2023-02-27T09:19:49.800Z,61
2023-02-27T09:34:55.026Z,57
2023-02-27T09:44:58.963Z,58
2023-02-27T09:50:00.646Z,57
2023-02-27T10:05:05.820Z,56
2023-02-27T10:15:09.031Z,55
2023-02-27T10:20:10.360Z,55
2023-02-27T10:25:24.977Z,56
2023-02-27T10:30:17.422Z,55
2023-02-27T10:35:16.431Z,55
2023-02-27T10:40:18.293Z,55
2023-02-27T10:45:20.189Z,55
2023-02-27T10:50:21.941Z,54
2023-02-27T10:55:23.306Z,54
2023-02-27T11:00:25.201Z,53
2023-02-27T11:05:26.549Z,52
2023-02-27T11:10:28.526Z,53
2023-02-27T11:15:30.124Z,53
2023-02-27T11:20:31.406Z,52
2023-02-27T11:25:33.051Z,52
2023-02-27T11:30:35.083Z,52
2023-02-27T11:35:36.854Z,52
2023-02-27T11:40:38.869Z,53
2023-02-27T11:46:04.045Z,52
2023-02-27T11:50:42.471Z,51
2023-02-27T11:55:44.601Z,52
2023-02-27T12:00:46.717Z,51
2023-02-27T12:05:47.916Z,52
2023-02-27T12:05:54.244Z,52
2023-02-27T12:11:04.580Z,51
2023-02-27T12:15:57.344Z,51
2023-02-27T12:20:58.864Z,50
2023-02-27T12:26:00.256Z,49
2023-02-27T12:31:02.554Z,48
2023-02-27T12:36:03.747Z,49
2023-02-27T12:41:05.133Z,48
2023-02-27T12:46:06.535Z,48
2023-02-27T12:51:08.254Z,47
2023-02-27T12:56:10.059Z,49
2023-02-27T13:01:11.576Z,48
2023-02-27T13:06:12.919Z,48
2023-02-27T13:11:14.860Z,49
2023-02-27T13:16:16.462Z,48
2023-02-27T13:21:17.631Z,47
2023-02-27T13:26:18.883Z,48
2023-02-27T13:31:21.065Z,48
2023-02-27T13:36:24.428Z,49
2023-02-27T13:41:24.623Z,49
2023-02-27T13:46:26.707Z,49
2023-02-27T13:51:28.480Z,50
2023-02-27T13:56:29.968Z,50
2023-02-27T14:01:32.492Z,49
2023-02-27T14:06:34.274Z,48
2023-02-27T14:11:35.476Z,47
2023-02-27T14:16:37.355Z,48
2023-02-27T14:21:38.562Z,49
2023-02-27T14:26:40.114Z,48
2023-02-27T14:31:41.286Z,49
2023-02-27T14:36:42.732Z,48
2023-02-27T14:41:44.218Z,48
2023-02-27T14:46:46.020Z,49
2023-02-27T14:51:48.193Z,48
2023-02-27T14:56:49.945Z,49
2023-02-27T15:01:54.481Z,48
2023-02-27T15:06:53.423Z,47
2023-02-27T15:12:03.332Z,49
2023-02-27T15:16:56.756Z,49
2023-02-27T15:21:58.493Z,50
2023-02-27T15:27:05.165Z,50
2023-02-27T15:32:01.630Z,50
2023-02-27T15:37:03.528Z,49
2023-02-27T15:42:04.647Z,49
2023-02-27T15:47:06.743Z,51
2023-02-27T15:52:08.651Z,50
2023-02-27T15:57:15.748Z,51
2023-02-27T16:02:12.245Z,51
2023-02-27T16:07:13.884Z,49
2023-02-27T16:12:15.413Z,50
2023-02-27T16:17:16.686Z,51
2023-02-27T16:22:18.234Z,52
2023-02-27T16:27:19.529Z,52
2023-02-27T16:32:21.264Z,52
2023-02-27T16:37:22.737Z,52
2023-02-27T16:42:24.162Z,53
2023-02-27T16:47:26.241Z,54
2023-02-27T16:52:28.026Z,54
2023-02-27T16:57:29.558Z,53
2023-02-27T17:02:31.014Z,54
2023-02-27T17:07:33.179Z,54
2023-02-27T17:12:34.854Z,54
2023-02-27T17:17:36.807Z,55
2023-02-27T17:22:38.711Z,55
2023-02-27T17:27:39.969Z,56
2023-02-27T17:32:41.556Z,56
2023-02-27T17:37:43.010Z,56
2023-02-27T17:42:45.023Z,57
2023-02-27T17:47:46.919Z,57
2023-02-27T17:52:49.507Z,57
2023-02-27T17:57:50.240Z,57
2023-02-27T18:02:52.292Z,57
2023-02-27T18:07:55.515Z,57
2023-02-27T18:12:56.175Z,58
2023-02-27T18:17:58.249Z,57
2023-02-27T18:22:59.480Z,58
2023-02-27T18:28:01.009Z,59
2023-02-27T18:33:07.764Z,58
2023-02-27T18:38:04.000Z,58
2023-02-27T18:43:05.790Z,58
2023-02-27T18:48:07.338Z,59
2023-02-27T18:53:09.251Z,60
2023-02-27T18:58:11.030Z,62
2023-02-27T19:03:13.100Z,62
2023-02-27T19:08:14.786Z,62
2023-02-27T19:13:16.312Z,62
2023-02-27T19:18:17.923Z,62
2023-02-27T19:23:19.945Z,63
2023-02-27T19:28:22.062Z,63
2023-02-27T19:33:23.849Z,63
2023-02-27T19:38:25.724Z,63
2023-02-27T19:43:27.394Z,63
2023-02-27T19:48:28.678Z,63
2023-02-27T19:53:30.554Z,62
2023-02-27T19:58:32.529Z,62
2023-02-27T20:03:34.665Z,61
2023-02-27T20:08:36.232Z,61
2023-02-27T20:13:42.701Z,61
2023-02-27T20:18:41.399Z,62
2023-02-27T20:23:40.712Z,60
2023-02-27T20:28:41.957Z,61
2023-02-27T20:33:43.196Z,61
2023-02-27T20:38:45.082Z,61
2023-02-27T20:43:47.116Z,61
2023-02-27T20:48:49.163Z,61
2023-02-27T20:53:50.952Z,61
2023-02-27T20:58:52.927Z,60
2023-02-27T21:03:54.437Z,60
2023-02-27T21:08:56.225Z,61
2023-02-27T21:13:57.739Z,61
2023-02-27T21:18:59.595Z,61
2023-02-27T21:24:01.130Z,61
2023-02-27T21:29:02.661Z,61
2023-02-27T21:34:04.167Z,62
2023-02-27T21:39:05.749Z,62
2023-02-27T21:44:07.534Z,62
2023-02-27T21:49:09.308Z,63
2023-02-27T21:54:11.361Z,63
2023-02-27T21:59:12.524Z,63
2023-02-27T22:04:14.374Z,63
2023-02-27T22:09:15.927Z,63
2023-02-27T22:14:17.265Z,63
2023-02-27T22:19:18.651Z,63
2023-02-27T22:24:20.110Z,63
2023-02-27T22:29:21.675Z,62
2023-02-27T22:34:23.293Z,62
2023-02-27T22:39:24.734Z,62
2023-02-27T22:44:26.731Z,62
2023-02-27T22:49:28.186Z,61
2023-02-27T22:54:30.042Z,61
2023-02-27T22:59:31.258Z,61
2023-02-27T23:14:36.476Z,60
2023-02-27T23:19:38.209Z,60
2023-02-27T23:24:39.733Z,61
2023-02-27T23:29:41.577Z,60
2023-02-27T23:34:49.265Z,60
2023-02-27T23:39:45.114Z,61
2023-02-27T23:44:46.857Z,61
2023-02-27T23:49:48.368Z,60
2023-02-27T23:59:51.607Z,61
